Time,TemperatureF,DewpointF,PressureIn,WindDirection,WindDirectionDegrees,WindSpeedMPH,WindSpeedGustMPH,Humidity,HourlyPrecipIn,Conditions,Clouds,dailyrainin,SoftwareType,DateUTC
2013-06-07 00:01:00,60.6,56.1,30.09,SSE,158,11.0,13.0,85,0.00,,,0.00,meteohub,2013-06-07 04:01:00,
2013-06-07 00:02:00,60.6,56.1,30.09,SSE,158,11.0,13.0,85,0.00,,,0.00,meteohub,2013-06-07 04:02:00,
2013-06-07 00:03:00,60.6,56.1,30.08,SE,135,10.0,13.0,85,0.00,,,0.00,meteohub,2013-06-07 04:03:00,
2013-06-07 00:08:00,60.6,56.1,30.08,SE,135,10.0,13.0,85,0.00,,,0.00,meteohub,2013-06-07 04:08:00,
2013-06-07 00:13:00,60.6,56.1,30.08,SSE,158,8.0,12.0,85,0.00,,,0.00,meteohub,2013-06-07 04:13:00,
2013-06-07 00:19:00,60.6,56.1,30.08,SSE,158,7.0,11.0,85,0.00,,,0.00,meteohub,2013-06-07 04:19:00,
2013-06-07 00:24:00,60.6,56.1,30.07,ESE,113,8.0,12.0,85,0.00,,,0.00,meteohub,2013-06-07 04:24:00,
2013-06-07 00:29:00,60.6,56.5,30.07,SSE,158,5.0,12.0,86,0.00,,,0.00,meteohub,2013-06-07 04:29:00,
2013-06-07 00:34:00,60.6,56.1,30.07,SE,135,11.0,12.0,85,0.00,,,0.00,meteohub,2013-06-07 04:34:00,
2013-06-07 00:40:00,60.6,56.1,30.07,SSE,158,8.0,11.0,85,0.00,,,0.00,meteohub,2013-06-07 04:40:00,
2013-06-07 00:45:00,60.6,56.1,30.06,SE,135,9.0,11.0,85,0.00,,,0.00,meteohub,2013-06-07 04:45:00,
2013-06-07 00:50:00,60.6,56.1,30.06,SE,135,13.0,14.0,85,0.00,,,0.00,meteohub,2013-06-07 04:50:00,
2013-06-07 00:55:00,60.6,56.1,30.06,SE,135,9.0,14.0,85,0.00,,,0.00,meteohub,2013-06-07 04:55:00,
2013-06-07 01:00:00,60.6,56.1,30.06,SSE,158,11.0,14.0,85,0.00,,,0.00,meteohub,2013-06-07 05:00:00,
2013-06-07 01:05:00,60.4,55.9,30.06,SE,135,19.0,19.0,85,0.00,,,0.00,meteohub,2013-06-07 05:05:00,
2013-06-07 01:10:00,60.6,56.1,30.06,SSE,158,16.0,19.0,85,0.00,,,0.00,meteohub,2013-06-07 05:10:00,
2013-06-07 01:16:00,60.6,56.1,30.06,SSE,158,19.0,19.0,85,0.00,,,0.00,meteohub,2013-06-07 05:16:00,
2013-06-07 01:21:00,60.3,55.8,30.06,SSE,158,12.0,19.0,85,0.00,,,0.00,meteohub,2013-06-07 05:21:00,
2013-06-07 01:26:00,60.3,55.8,30.04,SE,135,14.0,19.0,85,0.00,,,0.00,meteohub,2013-06-07 05:26:00,
2013-06-07 01:31:00,60.3,55.8,30.04,SE,135,16.0,19.0,85,0.00,,,0.00,meteohub,2013-06-07 05:31:00,
2013-06-07 01:36:00,60.3,55.8,30.04,SE,135,13.0,16.0,85,0.00,,,0.00,meteohub,2013-06-07 05:36:00,
2013-06-07 01:42:00,60.3,55.8,30.04,SE,135,11.0,16.0,85,0.00,,,0.00,meteohub,2013-06-07 05:42:00,
2013-06-07 01:47:00,60.6,56.1,30.06,SE,135,15.0,16.0,85,0.00,,,0.00,meteohub,2013-06-07 05:47:00,
2013-06-07 01:52:00,60.4,55.9,30.06,SE,135,11.0,15.0,85,0.00,,,0.00,meteohub,2013-06-07 05:52:00,
2013-06-07 01:57:00,60.4,55.9,30.06,SE,135,12.0,15.0,85,0.00,,,0.00,meteohub,2013-06-07 05:57:00,
2013-06-07 02:02:00,60.4,55.9,30.05,SE,135,13.0,15.0,85,0.00,,,0.00,meteohub,2013-06-07 06:02:00,
2013-06-07 02:07:00,60.6,56.1,30.05,SE,135,15.0,15.0,85,0.00,,,0.00,meteohub,2013-06-07 06:07:00,
2013-06-07 02:12:00,60.3,55.8,30.05,SE,135,12.0,15.0,85,0.00,,,0.00,meteohub,2013-06-07 06:12:00,
2013-06-07 02:17:00,60.4,55.9,30.05,SE,135,12.0,16.0,85,0.00,,,0.00,meteohub,2013-06-07 06:17:00,
2013-06-07 02:22:00,60.4,55.9,30.04,SE,135,10.0,16.0,85,0.00,,,0.00,meteohub,2013-06-07 06:22:00,
2013-06-07 02:28:00,60.4,55.9,30.04,SSE,158,13.0,14.0,85,0.00,,,0.00,meteohub,2013-06-07 06:28:00,
2013-06-07 02:33:00,60.3,55.8,30.04,SE,135,17.0,17.0,85,0.00,,,0.00,meteohub,2013-06-07 06:33:00,
2013-06-07 02:38:00,60.3,55.8,30.04,South,180,9.0,16.0,85,0.00,,,0.00,meteohub,2013-06-07 06:38:00,
2013-06-07 02:43:00,60.3,55.8,30.04,SE,135,15.0,17.0,85,0.00,,,0.00,meteohub,2013-06-07 06:43:00,
2013-06-07 02:48:00,60.1,55.2,30.04,SE,135,16.0,17.0,84,0.00,,,0.00,meteohub,2013-06-07 06:48:00,
2013-06-07 02:53:00,60.1,55.2,30.04,SSE,158,9.0,15.0,84,0.00,,,0.00,meteohub,2013-06-07 06:53:00,
2013-06-07 02:59:00,60.1,55.2,30.04,SE,135,21.0,21.0,84,0.00,,,0.00,meteohub,2013-06-07 06:59:00,
2013-06-07 03:04:00,60.1,55.2,30.04,South,180,12.0,21.0,84,0.00,,,0.00,meteohub,2013-06-07 07:04:00,
2013-06-07 03:09:00,60.1,55.2,30.04,South,180,12.0,21.0,84,0.00,,,0.00,meteohub,2013-06-07 07:09:00,
2013-06-07 03:14:00,59.9,55.4,30.04,SSE,158,15.0,21.0,85,0.00,,,0.00,meteohub,2013-06-07 07:14:00,
2013-06-07 03:19:00,59.9,55.4,30.04,SE,135,17.0,17.0,85,0.00,,,0.00,meteohub,2013-06-07 07:19:00,
2013-06-07 03:24:00,59.9,55.4,30.04,SE,135,9.0,15.0,85,0.00,,,0.00,meteohub,2013-06-07 07:24:00,
2013-06-07 03:30:00,59.7,55.2,30.04,SE,135,11.0,17.0,85,0.00,,,0.00,meteohub,2013-06-07 07:30:00,
2013-06-07 03:35:00,59.9,55.4,30.04,SSE,158,13.0,15.0,85,0.00,,,0.00,meteohub,2013-06-07 07:35:00,
2013-06-07 03:40:00,59.9,55.8,30.04,SE,135,17.0,17.0,86,0.00,,,0.00,meteohub,2013-06-07 07:40:00,
2013-06-07 03:45:00,59.9,55.8,30.04,SE,135,11.0,17.0,86,0.00,,,0.00,meteohub,2013-06-07 07:45:00,
2013-06-07 03:51:00,59.7,55.6,30.04,SSE,158,12.0,17.0,86,0.00,,,0.00,meteohub,2013-06-07 07:51:00,
2013-06-07 03:56:00,59.5,55.4,30.04,SE,135,9.0,17.0,86,0.00,,,0.00,meteohub,2013-06-07 07:56:00,
2013-06-07 04:01:00,59.5,55.4,30.04,SSE,158,11.0,12.0,86,0.00,,,0.00,meteohub,2013-06-07 08:01:00,
2013-06-07 04:06:00,59.4,55.2,30.03,ESE,113,14.0,14.0,86,0.00,,,0.00,meteohub,2013-06-07 08:06:00,
2013-06-07 04:11:00,59.4,55.4,30.03,SE,135,16.0,16.0,87,0.00,,,0.00,meteohub,2013-06-07 08:11:00,
2013-06-07 04:16:00,59.4,55.4,30.03,SE,135,15.0,16.0,87,0.00,,,0.00,meteohub,2013-06-07 08:16:00,
2013-06-07 04:21:00,59.5,55.6,30.03,SE,135,14.0,16.0,87,0.00,,,0.00,meteohub,2013-06-07 08:21:00,
2013-06-07 04:26:00,59.4,55.4,30.02,SE,135,13.0,16.0,87,0.00,,,0.00,meteohub,2013-06-07 08:26:00,
2013-06-07 04:32:00,59.2,55.4,30.02,SSE,158,12.0,16.0,87,0.00,,,0.00,meteohub,2013-06-07 08:32:00,
2013-06-07 04:37:00,59.2,55.4,30.02,SSE,158,13.0,16.0,87,0.00,,,0.00,meteohub,2013-06-07 08:37:00,
2013-06-07 04:42:00,59.0,55.2,30.02,NE,45,11.0,18.0,87,0.00,,,0.00,meteohub,2013-06-07 08:42:00,
2013-06-07 04:47:00,59.2,55.4,30.02,SE,135,17.0,20.0,87,0.00,,,0.00,meteohub,2013-06-07 08:47:00,
2013-06-07 04:52:00,59.2,55.4,30.02,SE,135,16.0,20.0,87,0.00,,,0.00,meteohub,2013-06-07 08:52:00,
2013-06-07 04:57:00,59.2,55.4,30.02,South,180,15.0,20.0,87,0.00,,,0.00,meteohub,2013-06-07 08:57:00,
2013-06-07 05:02:00,59.0,55.2,30.01,SE,135,18.0,18.0,87,0.00,,,0.00,meteohub,2013-06-07 09:02:00,
2013-06-07 05:07:00,59.0,55.2,30.01,SSE,158,16.0,18.0,87,0.00,,,0.00,meteohub,2013-06-07 09:07:00,
2013-06-07 05:13:00,59.0,55.2,30.01,SE,135,13.0,18.0,87,0.00,,,0.00,meteohub,2013-06-07 09:13:00,
2013-06-07 05:18:00,59.2,55.4,30.01,SSE,158,10.0,18.0,87,0.00,,,0.00,meteohub,2013-06-07 09:18:00,
2013-06-07 05:23:00,59.0,55.2,30.01,SE,135,11.0,16.0,87,0.00,,,0.00,meteohub,2013-06-07 09:23:00,
2013-06-07 05:28:00,59.2,55.4,30.01,SE,135,11.0,14.0,87,0.00,,,0.00,meteohub,2013-06-07 09:28:00,
2013-06-07 05:33:00,59.4,55.4,30.01,SE,135,11.0,14.0,87,0.00,,,0.00,meteohub,2013-06-07 09:33:00,
2013-06-07 05:38:00,59.5,55.6,30.01,SE,135,10.0,13.0,87,0.00,,,0.00,meteohub,2013-06-07 09:38:00,
2013-06-07 05:43:00,59.5,55.9,30.01,SE,135,10.0,13.0,88,0.00,,,0.00,meteohub,2013-06-07 09:43:00,
2013-06-07 05:49:00,59.5,55.9,30.01,SE,135,13.0,13.0,88,0.00,,,0.00,meteohub,2013-06-07 09:49:00,
2013-06-07 05:54:00,59.9,56.3,30.01,SSE,158,13.0,14.0,88,0.00,,,0.00,meteohub,2013-06-07 09:54:00,
2013-06-07 05:59:00,59.7,56.1,30.01,SSE,158,12.0,15.0,88,0.00,,,0.00,meteohub,2013-06-07 09:59:00,
2013-06-07 06:04:00,59.9,56.3,30.02,SSE,158,14.0,17.0,88,0.00,,,0.00,meteohub,2013-06-07 10:04:00,
2013-06-07 06:09:00,59.9,56.3,30.02,SSE,158,14.0,19.0,88,0.00,,,0.00,meteohub,2013-06-07 10:09:00,
2013-06-07 06:14:00,59.7,56.1,30.02,East,90,18.0,19.0,88,0.00,,,0.00,meteohub,2013-06-07 10:14:00,
2013-06-07 06:19:00,59.9,56.3,30.02,SE,135,11.0,19.0,88,0.00,,,0.00,meteohub,2013-06-07 10:19:00,
2013-06-07 06:24:00,59.9,56.3,30.02,South,180,16.0,18.0,88,0.00,,,0.00,meteohub,2013-06-07 10:24:00,
2013-06-07 06:30:00,59.9,56.3,30.02,SE,135,11.0,18.0,88,0.00,,,0.00,meteohub,2013-06-07 10:30:00,
2013-06-07 06:35:00,60.1,56.5,30.02,SSE,158,13.0,18.0,88,0.00,,,0.00,meteohub,2013-06-07 10:35:00,
2013-06-07 06:40:00,59.9,56.3,30.02,SE,135,11.0,18.0,88,0.00,,,0.00,meteohub,2013-06-07 10:40:00,
2013-06-07 06:45:00,59.9,56.3,30.02,South,180,14.0,19.0,88,0.00,,,0.00,meteohub,2013-06-07 10:45:00,
2013-06-07 06:50:00,60.1,56.5,30.02,SSE,158,11.0,19.0,88,0.00,,,0.00,meteohub,2013-06-07 10:50:00,
2013-06-07 06:55:00,60.1,56.5,30.02,SE,135,19.0,19.0,88,0.00,,,0.00,meteohub,2013-06-07 10:55:00,
2013-06-07 07:01:00,60.1,56.5,30.02,SE,135,19.0,19.0,88,0.00,,,0.00,meteohub,2013-06-07 11:01:00,
2013-06-07 07:06:00,60.3,56.7,30.01,SSE,158,16.0,19.0,88,0.00,,,0.00,meteohub,2013-06-07 11:06:00,
2013-06-07 07:11:00,60.1,56.5,30.01,South,180,15.0,22.0,88,0.00,,,0.00,meteohub,2013-06-07 11:11:00,
2013-06-07 07:16:00,60.1,56.5,30.01,SSE,158,17.0,22.0,88,0.00,,,0.00,meteohub,2013-06-07 11:16:00,
2013-06-07 07:21:00,60.3,56.7,30.01,SSE,158,18.0,19.0,88,0.03,,,0.03,meteohub,2013-06-07 11:21:00,
2013-06-07 07:26:00,60.3,56.7,30.01,SE,135,17.0,19.0,88,0.03,,,0.03,meteohub,2013-06-07 11:26:00,
2013-06-07 07:32:00,60.3,56.7,30.01,SSE,158,18.0,19.0,88,0.03,,,0.03,meteohub,2013-06-07 11:32:00,
2013-06-07 07:37:00,60.3,56.7,30.01,SSE,158,16.0,19.0,88,0.03,,,0.03,meteohub,2013-06-07 11:37:00,
2013-06-07 07:42:00,60.1,56.5,30.01,SE,135,20.0,20.0,88,0.03,,,0.03,meteohub,2013-06-07 11:42:00,
2013-06-07 07:47:00,60.3,56.7,30.01,SSE,158,18.0,20.0,88,0.03,,,0.03,meteohub,2013-06-07 11:47:00,
2013-06-07 07:52:00,60.3,56.7,30.01,SSE,158,13.0,20.0,88,0.03,,,0.03,meteohub,2013-06-07 11:52:00,
2013-06-07 07:57:00,60.3,56.7,30.01,SSE,158,14.0,20.0,88,0.03,,,0.03,meteohub,2013-06-07 11:57:00,
2013-06-07 08:02:00,60.3,56.7,30.01,SSE,158,12.0,18.0,88,0.03,,,0.03,meteohub,2013-06-07 12:02:00,
2013-06-07 08:07:00,60.4,56.8,30.01,South,180,19.0,22.0,88,0.03,,,0.03,meteohub,2013-06-07 12:07:00,
2013-06-07 08:12:00,60.6,57.0,30.01,SE,135,21.0,22.0,88,0.03,,,0.03,meteohub,2013-06-07 12:12:00,
2013-06-07 08:17:00,60.6,57.0,30.01,SE,135,17.0,22.0,88,0.00,,,0.03,meteohub,2013-06-07 12:17:00,
2013-06-07 08:22:00,60.6,57.0,30.01,SSE,158,18.0,21.0,88,0.00,,,0.03,meteohub,2013-06-07 12:22:00,
2013-06-07 08:27:00,60.8,57.2,30.01,SE,135,16.0,21.0,88,0.00,,,0.03,meteohub,2013-06-07 12:27:00,
2013-06-07 08:32:00,61.0,57.4,30.01,SSE,158,17.0,19.0,88,0.00,,,0.03,meteohub,2013-06-07 12:32:00,
2013-06-07 08:37:00,60.8,57.2,30.01,SE,135,16.0,19.0,88,0.00,,,0.03,meteohub,2013-06-07 12:37:00,
2013-06-07 08:42:00,61.0,57.4,30.01,SE,135,16.0,17.0,88,0.00,,,0.03,meteohub,2013-06-07 12:42:00,
2013-06-07 08:47:00,61.0,57.4,30.00,SE,135,16.0,25.0,88,0.00,,,0.03,meteohub,2013-06-07 12:47:00,
2013-06-07 08:52:00,61.2,57.6,30.00,South,180,23.0,25.0,88,0.00,,,0.03,meteohub,2013-06-07 12:52:00,
2013-06-07 08:57:00,61.3,57.7,30.00,SE,135,13.0,25.0,88,0.00,,,0.03,meteohub,2013-06-07 12:57:00,
2013-06-07 09:02:00,61.0,57.4,30.01,SSE,158,12.0,24.0,88,0.00,,,0.03,meteohub,2013-06-07 13:02:00,
2013-06-07 09:08:00,61.0,57.4,30.01,SE,135,16.0,23.0,88,0.00,,,0.03,meteohub,2013-06-07 13:08:00,
2013-06-07 09:13:00,61.0,57.4,30.01,SSE,158,20.0,20.0,88,0.00,,,0.03,meteohub,2013-06-07 13:13:00,
2013-06-07 09:18:00,61.0,57.4,30.01,South,180,19.0,19.0,88,0.00,,,0.03,meteohub,2013-06-07 13:18:00,
2013-06-07 09:23:00,61.0,57.4,30.01,South,180,19.0,20.0,88,0.00,,,0.03,meteohub,2013-06-07 13:23:00,
2013-06-07 09:28:00,61.0,57.4,30.01,SSE,158,19.0,20.0,88,0.00,,,0.03,meteohub,2013-06-07 13:28:00,
2013-06-07 09:33:00,60.8,57.2,30.01,SSE,158,17.0,19.0,88,0.00,,,0.03,meteohub,2013-06-07 13:33:00,
2013-06-07 09:39:00,61.0,57.4,30.01,SE,135,17.0,19.0,88,0.00,,,0.03,meteohub,2013-06-07 13:39:00,
2013-06-07 09:44:00,60.8,57.2,30.01,SSE,158,15.0,19.0,88,0.00,,,0.03,meteohub,2013-06-07 13:44:00,
2013-06-07 09:50:00,60.8,57.2,30.01,South,180,13.0,18.0,88,0.00,,,0.03,meteohub,2013-06-07 13:50:00,
2013-06-07 09:55:00,60.8,57.2,30.01,SSE,158,15.0,19.0,88,0.00,,,0.03,meteohub,2013-06-07 13:55:00,
2013-06-07 10:00:00,61.0,57.4,30.01,South,180,13.0,19.0,88,0.00,,,0.03,meteohub,2013-06-07 14:00:00,
2013-06-07 10:05:00,61.0,57.4,30.02,SSE,158,13.0,19.0,88,0.00,,,0.03,meteohub,2013-06-07 14:05:00,
2013-06-07 10:10:00,61.0,57.4,30.02,SSE,158,16.0,21.0,88,0.00,,,0.03,meteohub,2013-06-07 14:10:00,
2013-06-07 10:15:00,61.0,57.4,30.02,SSE,158,16.0,23.0,88,0.00,,,0.03,meteohub,2013-06-07 14:15:00,
2013-06-07 10:21:00,61.0,57.4,30.02,SSE,158,16.0,23.0,88,0.00,,,0.03,meteohub,2013-06-07 14:21:00,
2013-06-07 10:26:00,61.0,57.4,30.01,SSE,158,14.0,20.0,88,0.00,,,0.03,meteohub,2013-06-07 14:26:00,
2013-06-07 10:31:00,61.0,57.4,30.01,SSE,158,19.0,19.0,88,0.00,,,0.03,meteohub,2013-06-07 14:31:00,
2013-06-07 10:36:00,61.2,57.6,30.01,SSE,158,21.0,21.0,88,0.00,,,0.03,meteohub,2013-06-07 14:36:00,
2013-06-07 10:41:00,61.2,57.6,30.01,South,180,18.0,21.0,88,0.00,,,0.03,meteohub,2013-06-07 14:41:00,
2013-06-07 10:47:00,61.0,57.4,30.01,SSE,158,16.0,21.0,88,0.00,,,0.03,meteohub,2013-06-07 14:47:00,
2013-06-07 10:52:00,61.3,57.7,30.01,SE,135,21.0,21.0,88,0.00,,,0.03,meteohub,2013-06-07 14:52:00,
2013-06-07 10:57:00,61.3,57.7,30.01,SSE,158,20.0,22.0,88,0.00,,,0.03,meteohub,2013-06-07 14:57:00,
2013-06-07 11:02:00,61.5,57.9,30.01,SSE,158,15.0,22.0,88,0.00,,,0.03,meteohub,2013-06-07 15:02:00,
2013-06-07 11:07:00,61.5,57.9,29.99,SSE,158,17.0,22.0,88,0.00,,,0.03,meteohub,2013-06-07 15:07:00,
2013-06-07 11:12:00,61.5,57.9,29.99,South,180,23.0,23.0,88,0.00,,,0.03,meteohub,2013-06-07 15:12:00,
2013-06-07 11:17:00,61.5,57.9,29.99,SSE,158,15.0,23.0,88,0.00,,,0.03,meteohub,2013-06-07 15:17:00,
2013-06-07 11:22:00,62.1,58.5,29.99,SE,135,18.0,23.0,88,0.00,,,0.03,meteohub,2013-06-07 15:22:00,
2013-06-07 11:27:00,61.9,58.3,30.01,SSE,158,11.0,24.0,88,0.00,,,0.03,meteohub,2013-06-07 15:27:00,
2013-06-07 11:32:00,62.1,58.5,30.01,South,180,13.0,25.0,88,0.00,,,0.03,meteohub,2013-06-07 15:32:00,
2013-06-07 11:37:00,61.9,58.3,30.01,SSE,158,22.0,25.0,88,0.03,,,0.06,meteohub,2013-06-07 15:37:00,
2013-06-07 11:42:00,62.1,58.5,29.99,SSE,158,21.0,21.0,88,0.03,,,0.06,meteohub,2013-06-07 15:42:00,
2013-06-07 11:47:00,61.9,58.3,29.99,SE,135,16.0,22.0,88,0.03,,,0.06,meteohub,2013-06-07 15:47:00,
2013-06-07 11:53:00,61.7,58.1,29.99,ESE,113,23.0,23.0,88,0.03,,,0.06,meteohub,2013-06-07 15:53:00,
2013-06-07 11:58:00,61.7,58.1,29.99,SE,135,19.0,23.0,88,0.03,,,0.06,meteohub,2013-06-07 15:58:00,
2013-06-07 12:03:00,61.7,58.1,29.99,South,180,17.0,23.0,88,0.03,,,0.06,meteohub,2013-06-07 16:03:00,
2013-06-07 12:08:00,61.7,58.1,29.99,South,180,17.0,23.0,88,0.06,,,0.08,meteohub,2013-06-07 16:08:00,
2013-06-07 12:14:00,61.5,57.9,29.99,South,180,24.0,24.0,88,0.06,,,0.08,meteohub,2013-06-07 16:14:00,
2013-06-07 12:19:00,61.3,57.7,29.99,SSE,158,15.0,20.0,88,0.06,,,0.08,meteohub,2013-06-07 16:19:00,
2013-06-07 12:24:00,61.3,57.7,29.99,SE,135,27.0,27.0,88,0.08,,,0.11,meteohub,2013-06-07 16:24:00,
2013-06-07 12:29:00,61.0,57.4,29.99,SE,135,21.0,24.0,88,0.08,,,0.11,meteohub,2013-06-07 16:29:00,
2013-06-07 12:35:00,60.8,57.2,29.99,ESE,113,27.0,27.0,88,0.06,,,0.11,meteohub,2013-06-07 16:35:00,
2013-06-07 12:40:00,60.8,57.2,29.99,SE,135,23.0,27.0,88,0.08,,,0.14,meteohub,2013-06-07 16:40:00,
2013-06-07 12:45:00,60.8,57.2,29.99,SE,135,17.0,27.0,88,0.08,,,0.14,meteohub,2013-06-07 16:45:00,
2013-06-07 12:50:00,60.8,57.2,29.99,SSE,158,17.0,27.0,88,0.08,,,0.14,meteohub,2013-06-07 16:50:00,
2013-06-07 12:55:00,60.8,57.2,29.99,SE,135,20.0,23.0,88,0.08,,,0.14,meteohub,2013-06-07 16:55:00,
2013-06-07 13:01:00,60.4,56.8,29.99,SE,135,15.0,23.0,88,0.08,,,0.16,meteohub,2013-06-07 17:01:00,
2013-06-07 13:06:00,60.6,57.4,29.98,SSE,158,24.0,24.0,89,0.08,,,0.16,meteohub,2013-06-07 17:06:00,
2013-06-07 13:11:00,60.3,57.0,29.98,SE,135,18.0,24.0,89,0.08,,,0.16,meteohub,2013-06-07 17:11:00,
2013-06-07 13:16:00,60.3,57.0,29.98,SE,135,18.0,24.0,89,0.11,,,0.19,meteohub,2013-06-07 17:16:00,
2013-06-07 13:21:00,60.3,57.0,29.98,South,180,19.0,25.0,89,0.08,,,0.19,meteohub,2013-06-07 17:21:00,
2013-06-07 13:26:00,60.1,56.8,29.96,SE,135,24.0,25.0,89,0.08,,,0.19,meteohub,2013-06-07 17:26:00,
2013-06-07 13:32:00,60.3,57.4,29.96,SE,135,18.0,28.0,90,0.11,,,0.22,meteohub,2013-06-07 17:32:00,
2013-06-07 13:37:00,60.1,57.2,29.96,SE,135,15.0,28.0,90,0.08,,,0.22,meteohub,2013-06-07 17:37:00,
2013-06-07 13:42:00,60.1,57.2,29.96,East,90,19.0,28.0,90,0.11,,,0.24,meteohub,2013-06-07 17:42:00,
2013-06-07 13:47:00,60.1,57.2,29.96,SSE,158,19.0,28.0,90,0.11,,,0.24,meteohub,2013-06-07 17:47:00,
2013-06-07 13:52:00,60.1,57.4,29.96,SE,135,18.0,26.0,91,0.13,,,0.27,meteohub,2013-06-07 17:52:00,
2013-06-07 13:57:00,60.3,57.6,29.96,SE,135,24.0,26.0,91,0.13,,,0.27,meteohub,2013-06-07 17:57:00,
2013-06-07 14:02:00,60.1,57.4,29.96,SE,135,27.0,27.0,91,0.14,,,0.30,meteohub,2013-06-07 18:02:00,
2013-06-07 14:07:00,60.1,57.4,29.94,ESE,113,26.0,27.0,91,0.14,,,0.30,meteohub,2013-06-07 18:07:00,
2013-06-07 14:13:00,59.9,57.0,29.94,SE,135,26.0,27.0,90,0.14,,,0.33,meteohub,2013-06-07 18:13:00,
2013-06-07 14:18:00,59.9,57.2,29.94,SSE,158,21.0,27.0,91,0.17,,,0.35,meteohub,2013-06-07 18:18:00,
2013-06-07 14:23:00,59.9,57.2,29.94,SE,135,18.0,26.0,91,0.17,,,0.35,meteohub,2013-06-07 18:23:00,
2013-06-07 14:29:00,59.9,57.2,29.94,SE,135,13.0,26.0,91,0.19,,,0.41,meteohub,2013-06-07 18:29:00,
2013-06-07 14:36:00,59.5,56.8,29.94,SE,135,22.0,24.0,91,0.17,,,0.41,meteohub,2013-06-07 18:36:00,
2013-06-07 14:41:00,59.9,57.2,29.94,SSE,158,25.0,25.0,91,0.19,,,0.43,meteohub,2013-06-07 18:41:00,
2013-06-07 14:46:00,59.9,57.2,29.94,SE,135,19.0,25.0,91,0.19,,,0.46,meteohub,2013-06-07 18:46:00,
2013-06-07 14:52:00,59.7,57.0,29.94,South,180,16.0,26.0,91,0.19,,,0.46,meteohub,2013-06-07 18:52:00,
2013-06-07 14:57:00,59.9,57.2,29.94,SE,135,28.0,28.0,91,0.19,,,0.49,meteohub,2013-06-07 18:57:00,
2013-06-07 15:02:00,59.7,57.4,29.93,SSE,158,26.0,26.0,92,0.19,,,0.49,meteohub,2013-06-07 19:02:00,
2013-06-07 15:07:00,59.9,57.6,29.93,South,180,19.0,28.0,92,0.19,,,0.52,meteohub,2013-06-07 19:07:00,
2013-06-07 15:12:00,59.5,57.2,29.93,SE,135,17.0,28.0,92,0.19,,,0.52,meteohub,2013-06-07 19:12:00,
2013-06-07 15:17:00,59.5,57.2,29.93,SE,135,21.0,26.0,92,0.19,,,0.54,meteohub,2013-06-07 19:17:00,
2013-06-07 15:22:00,59.4,56.7,29.93,SE,135,21.0,23.0,91,0.19,,,0.57,meteohub,2013-06-07 19:22:00,
2013-06-07 15:28:00,59.5,57.2,29.93,South,180,13.0,23.0,92,0.19,,,0.60,meteohub,2013-06-07 19:28:00,
2013-06-07 15:33:00,59.4,57.0,29.93,SSE,158,26.0,26.0,92,0.19,,,0.60,meteohub,2013-06-07 19:33:00,
2013-06-07 15:39:00,59.4,57.0,29.93,SE,135,22.0,22.0,92,0.17,,,0.60,meteohub,2013-06-07 19:39:00,
2013-06-07 15:44:00,59.4,57.0,29.92,SE,135,19.0,26.0,92,0.19,,,0.63,meteohub,2013-06-07 19:44:00,
2013-06-07 15:50:00,59.5,57.2,29.92,SE,135,25.0,25.0,92,0.22,,,0.70,meteohub,2013-06-07 19:50:00,
2013-06-07 15:55:00,59.4,57.0,29.92,SSE,158,23.0,25.0,92,0.22,,,0.70,meteohub,2013-06-07 19:55:00,
2013-06-07 16:00:00,59.5,57.2,29.92,SE,135,18.0,25.0,92,0.24,,,0.76,meteohub,2013-06-07 20:00:00,
2013-06-07 16:05:00,59.4,57.0,29.90,SE,135,20.0,25.0,92,0.27,,,0.79,meteohub,2013-06-07 20:05:00,
2013-06-07 16:11:00,59.4,57.0,29.90,SE,135,16.0,25.0,92,0.27,,,0.81,meteohub,2013-06-07 20:11:00,
2013-06-07 16:16:00,59.2,56.8,29.90,SSE,158,20.0,25.0,92,0.27,,,0.84,meteohub,2013-06-07 20:16:00,
2013-06-07 16:21:00,59.2,56.8,29.90,SSE,158,19.0,25.0,92,0.30,,,0.87,meteohub,2013-06-07 20:21:00,
2013-06-07 16:26:00,59.2,56.8,29.91,SSE,158,12.0,22.0,92,0.30,,,0.90,meteohub,2013-06-07 20:26:00,
2013-06-07 16:32:00,59.2,56.8,29.91,SE,135,20.0,23.0,92,0.30,,,0.90,meteohub,2013-06-07 20:32:00,
2013-06-07 16:37:00,59.2,56.8,29.91,SE,135,22.0,23.0,92,0.30,,,0.93,meteohub,2013-06-07 20:37:00,
2013-06-07 16:42:00,59.2,56.8,29.91,SSE,158,20.0,22.0,92,0.27,,,0.93,meteohub,2013-06-07 20:42:00,
2013-06-07 16:48:00,59.0,56.7,29.90,SSE,158,19.0,22.0,92,0.27,,,0.93,meteohub,2013-06-07 20:48:00,
2013-06-07 16:53:00,59.2,56.8,29.90,SSE,158,16.0,32.0,92,0.22,,,0.93,meteohub,2013-06-07 20:53:00,
2013-06-07 16:58:00,59.0,56.7,29.90,SE,135,18.0,32.0,92,0.22,,,0.95,meteohub,2013-06-07 20:58:00,
2013-06-07 17:04:00,59.0,56.7,29.90,South,180,21.0,32.0,92,0.19,,,0.95,meteohub,2013-06-07 21:04:00,
2013-06-07 17:09:00,59.2,56.8,29.90,South,180,15.0,20.0,92,0.14,,,0.95,meteohub,2013-06-07 21:09:00,
2013-06-07 17:14:00,59.2,56.8,29.90,SE,135,20.0,21.0,92,0.13,,,0.98,meteohub,2013-06-07 21:14:00,
2013-06-07 17:20:00,59.0,56.7,29.90,SE,135,18.0,28.0,92,0.11,,,1.00,meteohub,2013-06-07 21:20:00,
2013-06-07 17:25:00,59.2,57.2,29.89,SE,135,13.0,28.0,93,0.16,,,1.06,meteohub,2013-06-07 21:25:00,
2013-06-07 17:30:00,58.8,56.5,29.89,SSE,158,14.0,26.0,92,0.19,,,1.09,meteohub,2013-06-07 21:30:00,
2013-06-07 17:37:00,58.8,56.5,29.89,SE,135,19.0,26.0,92,0.19,,,1.11,meteohub,2013-06-07 21:37:00,
2013-06-07 17:42:00,58.8,56.5,29.88,SE,135,23.0,27.0,92,0.19,,,1.11,meteohub,2013-06-07 21:42:00,
2013-06-07 17:47:00,58.8,56.5,29.88,SSE,158,27.0,27.0,92,0.22,,,1.14,meteohub,2013-06-07 21:47:00,
2013-06-07 17:52:00,58.8,56.5,29.88,SE,135,26.0,27.0,92,0.22,,,1.17,meteohub,2013-06-07 21:52:00,
2013-06-07 17:57:00,58.8,56.5,29.88,SE,135,21.0,27.0,92,0.22,,,1.17,meteohub,2013-06-07 21:57:00,
2013-06-07 18:02:00,58.8,56.5,29.88,ESE,113,26.0,27.0,92,0.24,,,1.20,meteohub,2013-06-07 22:02:00,
2013-06-07 18:07:00,58.8,56.5,29.86,SE,135,17.0,26.0,92,0.25,,,1.22,meteohub,2013-06-07 22:07:00,
2013-06-07 18:12:00,58.6,56.3,29.86,SSE,158,15.0,26.0,92,0.27,,,1.25,meteohub,2013-06-07 22:12:00,
2013-06-07 18:17:00,58.6,56.3,29.86,ESE,113,17.0,26.0,92,0.24,,,1.25,meteohub,2013-06-07 22:17:00,
2013-06-07 18:22:00,58.6,56.3,29.86,SE,135,21.0,28.0,92,0.24,,,1.30,meteohub,2013-06-07 22:22:00,
2013-06-07 18:27:00,58.6,56.3,29.82,SE,135,22.0,28.0,92,0.30,,,1.39,meteohub,2013-06-07 22:27:00,
2013-06-07 18:32:00,58.8,56.5,29.82,South,180,24.0,33.0,92,0.30,,,1.41,meteohub,2013-06-07 22:32:00,
2013-06-07 18:37:00,58.6,56.3,29.82,SE,135,29.0,33.0,92,0.30,,,1.41,meteohub,2013-06-07 22:37:00,
2013-06-07 18:42:00,58.8,56.5,29.82,SSE,158,22.0,33.0,92,0.35,,,1.50,meteohub,2013-06-07 22:42:00,
2013-06-07 18:47:00,58.8,56.5,29.80,SE,135,22.0,32.0,92,0.35,,,1.52,meteohub,2013-06-07 22:47:00,
2013-06-07 18:52:00,58.6,56.3,29.80,SE,135,22.0,32.0,92,0.43,,,1.60,meteohub,2013-06-07 22:52:00,
2013-06-07 18:57:00,58.6,56.3,29.80,ESE,113,28.0,32.0,92,0.46,,,1.66,meteohub,2013-06-07 22:57:00,
2013-06-07 19:02:00,58.8,56.5,29.81,SE,135,21.0,31.0,92,0.54,,,1.77,meteohub,2013-06-07 23:02:00,
2013-06-07 19:07:00,58.8,56.5,29.81,SE,135,23.0,30.0,92,0.57,,,1.79,meteohub,2013-06-07 23:07:00,
2013-06-07 19:13:00,58.6,56.7,29.81,South,180,27.0,28.0,93,0.49,,,1.79,meteohub,2013-06-07 23:13:00,
2013-06-07 19:19:00,58.8,56.8,29.81,SE,135,25.0,27.0,93,0.54,,,1.85,meteohub,2013-06-07 23:19:00,
2013-06-07 19:24:00,58.8,56.5,29.79,SSE,158,29.0,29.0,92,0.57,,,1.93,meteohub,2013-06-07 23:24:00,
2013-06-07 19:29:00,58.5,56.5,29.79,ESE,113,10.0,29.0,93,0.68,,,2.09,meteohub,2013-06-07 23:29:00,
2013-06-07 19:35:00,58.6,56.7,29.79,East,90,8.0,29.0,93,0.84,,,2.26,meteohub,2013-06-07 23:35:00,
2013-06-07 19:40:00,58.6,56.7,29.79,ESE,113,15.0,15.0,93,0.87,,,2.39,meteohub,2013-06-07 23:40:00,
2013-06-07 19:46:00,58.6,56.7,29.79,SSE,158,13.0,15.0,93,0.93,,,2.50,meteohub,2013-06-07 23:46:00,
2013-06-07 19:52:00,58.8,56.8,29.79,SE,135,18.0,18.0,93,0.95,,,2.61,meteohub,2013-06-07 23:52:00,
2013-06-07 19:57:00,59.2,57.2,29.79,ESE,113,21.0,21.0,93,0.92,,,2.63,meteohub,2013-06-07 23:57:00,
2013-06-07 20:03:00,59.0,57.0,29.79,SE,135,15.0,21.0,93,0.89,,,2.66,meteohub,2013-06-08 00:03:00,
2013-06-07 20:08:00,59.2,57.2,29.79,ESE,113,15.0,21.0,93,0.90,,,0.03,meteohub,2013-06-08 00:08:00,
2013-06-07 20:14:00,59.0,57.0,29.79,South,180,20.0,21.0,93,0.84,,,0.03,meteohub,2013-06-08 00:14:00,
2013-06-07 20:19:00,58.8,56.8,29.79,East,90,9.0,21.0,93,0.87,,,0.06,meteohub,2013-06-08 00:19:00,
2013-06-07 20:25:00,58.8,56.8,29.80,East,90,6.0,20.0,93,0.46,,,0.06,meteohub,2013-06-08 00:25:00,
2013-06-07 20:30:00,58.6,56.7,29.80,ENE,68,9.0,10.0,93,0.52,,,0.17,meteohub,2013-06-08 00:30:00,
2013-06-07 20:35:00,58.6,56.7,29.80,NW,315,3.0,10.0,93,0.49,,,0.17,meteohub,2013-06-08 00:35:00,
2013-06-07 20:41:00,58.8,56.8,29.80,NNE,23,7.0,9.0,93,0.38,,,0.22,meteohub,2013-06-08 00:41:00,
2013-06-07 20:46:00,58.8,56.8,29.81,ENE,68,11.0,11.0,93,0.33,,,0.27,meteohub,2013-06-08 00:46:00,
2013-06-07 20:51:00,58.6,56.7,29.81,WSW,248,13.0,13.0,93,0.33,,,0.30,meteohub,2013-06-08 00:51:00,
2013-06-07 20:56:00,58.6,56.7,29.81,SE,135,13.0,13.0,93,0.33,,,0.33,meteohub,2013-06-08 00:56:00,
2013-06-07 21:02:00,58.6,56.7,29.81,SSE,158,9.0,13.0,93,0.33,,,0.35,meteohub,2013-06-08 01:02:00,
2013-06-07 21:07:00,58.5,56.5,29.79,SSE,158,15.0,15.0,93,0.35,,,0.38,meteohub,2013-06-08 01:07:00,
2013-06-07 21:12:00,58.5,56.5,29.79,ENE,68,13.0,15.0,93,0.35,,,0.38,meteohub,2013-06-08 01:12:00,
2013-06-07 21:17:00,58.1,56.1,29.79,SSE,158,8.0,15.0,93,0.35,,,0.41,meteohub,2013-06-08 01:17:00,
2013-06-07 21:22:00,58.1,56.1,29.79,ESE,113,9.0,15.0,93,0.35,,,0.41,meteohub,2013-06-08 01:22:00,
2013-06-07 21:27:00,58.1,56.1,29.78,ESE,113,9.0,13.0,93,0.35,,,0.44,meteohub,2013-06-08 01:27:00,
2013-06-07 21:32:00,57.9,55.9,29.78,ENE,68,10.0,10.0,93,0.27,,,0.44,meteohub,2013-06-08 01:32:00,
2013-06-07 21:37:00,57.9,55.9,29.78,ENE,68,14.0,14.0,93,0.27,,,0.46,meteohub,2013-06-08 01:37:00,
2013-06-07 21:43:00,57.9,55.9,29.78,ENE,68,7.0,14.0,93,0.22,,,0.49,meteohub,2013-06-08 01:43:00,
2013-06-07 21:48:00,57.9,55.9,29.78,NE,45,7.0,14.0,93,0.22,,,0.49,meteohub,2013-06-08 01:48:00,
2013-06-07 21:54:00,58.1,56.1,29.78,NE,45,11.0,14.0,93,0.19,,,0.52,meteohub,2013-06-08 01:54:00,
2013-06-07 21:59:00,58.1,56.1,29.78,East,90,5.0,13.0,93,0.19,,,0.54,meteohub,2013-06-08 01:59:00,
2013-06-07 22:04:00,57.9,55.9,29.78,NE,45,4.0,13.0,93,0.24,,,0.60,meteohub,2013-06-08 02:04:00,
2013-06-07 22:09:00,58.1,56.1,29.78,ESE,113,4.0,13.0,93,0.22,,,0.60,meteohub,2013-06-08 02:09:00,
2013-06-07 22:15:00,58.1,56.1,29.78,ENE,68,6.0,8.0,93,0.19,,,0.60,meteohub,2013-06-08 02:15:00,
2013-06-07 22:20:00,58.1,56.1,29.78,NE,45,3.0,8.0,93,0.19,,,0.63,meteohub,2013-06-08 02:20:00,
2013-06-07 22:26:00,58.5,56.5,29.78,WNW,293,6.0,8.0,93,0.24,,,0.68,meteohub,2013-06-08 02:26:00,
2013-06-07 22:31:00,58.1,56.1,29.78,NNW,338,12.0,12.0,93,0.22,,,0.68,meteohub,2013-06-08 02:31:00,
2013-06-07 22:37:00,58.1,56.1,29.78,East,90,8.0,12.0,93,0.22,,,0.71,meteohub,2013-06-08 02:37:00,
2013-06-07 22:42:00,57.9,55.9,29.77,East,90,12.0,14.0,93,0.22,,,0.71,meteohub,2013-06-08 02:42:00,
2013-06-07 22:47:00,58.1,56.1,29.77,ENE,68,9.0,14.0,93,0.19,,,0.71,meteohub,2013-06-08 02:47:00,
2013-06-07 22:52:00,57.9,55.9,29.77,ENE,68,9.0,14.0,93,0.17,,,0.71,meteohub,2013-06-08 02:52:00,
2013-06-07 22:57:00,58.1,56.1,29.77,NE,45,7.0,12.0,93,0.14,,,0.71,meteohub,2013-06-08 02:57:00,
2013-06-07 23:02:00,58.1,56.1,29.77,ENE,68,11.0,11.0,93,0.11,,,0.71,meteohub,2013-06-08 03:02:00,
2013-06-07 23:07:00,58.1,56.1,29.74,ENE,68,7.0,11.0,93,0.11,,,0.71,meteohub,2013-06-08 03:07:00,
2013-06-07 23:12:00,57.9,55.9,29.74,NNE,23,7.0,11.0,93,0.11,,,0.71,meteohub,2013-06-08 03:12:00,
2013-06-07 23:17:00,58.1,56.1,29.74,ESE,113,11.0,13.0,93,0.08,,,0.71,meteohub,2013-06-08 03:17:00,
2013-06-07 23:22:00,58.1,56.1,29.74,East,90,9.0,13.0,93,0.08,,,0.74,meteohub,2013-06-08 03:22:00,
2013-06-07 23:27:00,58.3,56.3,29.73,ESE,113,5.0,11.0,93,0.06,,,0.74,meteohub,2013-06-08 03:27:00,
2013-06-07 23:32:00,58.5,56.5,29.73,SE,135,6.0,11.0,93,0.03,,,0.74,meteohub,2013-06-08 03:32:00,
2013-06-07 23:37:00,58.5,56.5,29.73,NE,45,6.0,11.0,93,0.03,,,0.74,meteohub,2013-06-08 03:37:00,
2013-06-07 23:42:00,58.5,56.5,29.73,ENE,68,7.0,11.0,93,0.03,,,0.74,meteohub,2013-06-08 03:42:00,
2013-06-07 23:47:00,58.6,56.7,29.70,SSW,203,5.0,7.0,93,0.03,,,0.74,meteohub,2013-06-08 03:47:00,
2013-06-07 23:52:00,58.6,56.7,29.70,ESE,113,4.0,13.0,93,0.03,,,0.74,meteohub,2013-06-08 03:52:00,
2013-06-07 23:57:00,59.2,57.2,29.70,South,180,15.0,15.0,93,0.03,,,0.74,meteohub,2013-06-08 03:57:00,